Time;durP1;ratioP1;P1;durP2;ratioP2;P2;SDS_P1;SDS_P2;PMS_P1;PMS_P2;Temp;Humidity;BMP_temperature;BMP_pressure;BME280_temperature;BME280_humidity;BME280_pressure;Samples;Min_cycle;Max_cycle;Signal;HPM_P1;HPM_P2
2023/08/05 00:03:44;;;;;;;3.47;2.40;;;18.80;99.90;;;;;;10130060;28;20021;-78
2023/08/05 00:08:34;;;;;;;4.30;2.45;;;18.80;99.90;;;;;;10130218;28;20502;-79
2023/08/05 00:13:25;;;;;;;3.80;2.80;;;18.60;99.90;;;;;;10129996;28;20070;-76
2023/08/05 00:18:17;;;;;;;4.47;3.20;;;18.60;99.90;;;;;;10130636;28;20033;-77
2023/08/05 00:23:07;;;;;;;7.70;3.20;;;18.50;99.90;;;;;;10129364;28;20106;-77
2023/08/05 00:27:58;;;;;;;4.45;2.70;;;18.50;99.90;;;;;;10134188;28;20116;-77
2023/08/05 00:32:48;;;;;;;5.28;3.47;;;18.50;99.90;;;;;;10121282;28;20029;-78
2023/08/05 00:37:39;;;;;;;4.75;3.47;;;18.60;99.90;;;;;;10102146;28;20033;-78
2023/08/05 00:42:30;;;;;;;5.75;2.95;;;18.50;99.90;;;;;;10102068;28;20123;-77
2023/08/05 00:47:21;;;;;;;3.80;2.65;;;18.60;99.90;;;;;;10101946;28;20029;-76
2023/08/05 00:52:14;;;;;;;5.57;3.08;;;18.60;99.90;;;;;;10100059;28;20039;-77
2023/08/05 00:57:05;;;;;;;5.93;3.78;;;18.60;99.90;;;;;;10101631;28;20037;-77
2023/08/05 01:01:56;;;;;;;3.92;2.78;;;18.60;99.90;;;;;;10101212;28;20033;-76
2023/08/05 01:06:46;;;;;;;5.05;2.70;;;18.60;99.90;;;;;;10101202;28;20569;-77
2023/08/05 01:11:37;;;;;;;6.03;3.15;;;18.50;99.90;;;;;;10099325;28;20041;-76
2023/08/05 01:16:28;;;;;;;5.68;4.15;;;18.50;99.90;;;;;;10106376;28;20024;-77
2023/08/05 01:21:37;;;;;;;3.88;2.92;;;18.40;99.90;;;;;;10100063;28;20128;-75
2023/08/05 01:26:28;;;;;;;5.35;3.33;;;18.40;99.90;;;;;;10094926;28;20079;-76
2023/08/05 01:31:20;;;;;;;6.75;2.67;;;18.30;99.90;;;;;;10103399;28;20040;-74
2023/08/05 01:36:19;;;;;;;5.15;3.28;;;18.30;99.90;;;;;;10096590;28;20029;-73
2023/08/05 01:41:10;;;;;;;5.35;3.05;;;18.30;99.90;;;;;;10097241;28;20474;-74
2023/08/05 01:46:00;;;;;;;6.47;3.15;;;18.30;99.90;;;;;;10098379;28;20028;-72
2023/08/05 01:50:51;;;;;;;6.25;3.60;;;18.10;99.90;;;;;;10097032;28;20029;-72
2023/08/05 01:55:42;;;;;;;5.78;3.67;;;18.10;99.90;;;;;;10097845;28;20036;-73
2023/08/05 02:00:32;;;;;;;7.05;3.33;;;18.10;99.90;;;;;;10098202;28;20064;-73
2023/08/05 02:05:23;;;;;;;6.63;3.30;;;18.00;99.90;;;;;;10097961;28;20166;-77
2023/08/05 02:10:14;;;;;;;4.53;2.80;;;18.10;99.90;;;;;;10097460;28;20060;-77
2023/08/05 02:15:05;;;;;;;6.00;3.25;;;18.20;99.90;;;;;;10098634;28;20394;-79
2023/08/05 02:19:55;;;;;;;4.93;2.63;;;18.10;99.90;;;;;;10101463;28;20629;-77
2023/08/05 02:24:46;;;;;;;4.38;3.25;;;18.10;99.90;;;;;;10096520;28;20315;-74
2023/08/05 02:29:38;;;;;;;5.68;3.20;;;18.00;99.90;;;;;;10101542;28;20028;-79
2023/08/05 02:34:29;;;;;;;4.78;3.17;;;17.90;99.90;;;;;;10098362;28;20044;-78
2023/08/05 02:39:19;;;;;;;7.45;3.10;;;18.00;99.90;;;;;;10097063;28;20513;-77
2023/08/05 02:44:10;;;;;;;5.70;3.20;;;18.00;99.90;;;;;;10098189;28;20047;-78
2023/08/05 02:49:01;;;;;;;4.85;3.13;;;18.00;99.90;;;;;;10097546;28;20386;-77
2023/08/05 02:53:52;;;;;;;5.82;3.60;;;17.90;99.90;;;;;;10097472;28;20502;-74
2023/08/05 02:58:42;;;;;;;5.72;3.15;;;17.90;99.90;;;;;;10097232;28;20025;-73
2023/08/05 03:03:33;;;;;;;8.02;3.33;;;17.90;99.90;;;;;;10096777;28;20040;-78
2023/08/05 03:08:24;;;;;;;6.75;3.78;;;17.90;99.90;;;;;;10094411;28;20086;-82
2023/08/05 03:13:15;;;;;;;6.28;4.05;;;17.80;99.90;;;;;;10096824;28;20511;-83
2023/08/05 03:18:05;;;;;;;5.57;3.03;;;17.80;99.90;;;;;;10104156;28;20099;-79
2023/08/05 03:22:57;;;;;;;3.88;2.78;;;17.80;99.90;;;;;;10098530;28;20048;-83
2023/08/05 03:27:51;;;;;;;5.28;2.92;;;17.80;99.90;;;;;;10099295;28;20028;-81
2023/08/05 03:32:41;;;;;;;7.47;4.25;;;17.70;99.90;;;;;;10093807;28;20119;-81
2023/08/05 03:37:32;;;;;;;5.30;2.60;;;17.70;99.90;;;;;;10095675;28;20124;-79
2023/08/05 03:42:23;;;;;;;4.50;3.03;;;17.70;99.90;;;;;;10096777;28;20459;-81
2023/08/05 03:47:13;;;;;;;6.22;3.17;;;17.70;99.90;;;;;;10096382;28;20021;-74
2023/08/05 03:52:04;;;;;;;3.33;2.83;;;17.70;99.90;;;;;;10100389;28;20039;-75
2023/08/05 03:56:58;;;;;;;6.70;3.15;;;17.50;99.90;;;;;;10096949;28;20029;-75
2023/08/05 04:01:48;;;;;;;4.53;2.45;;;17.50;99.90;;;;;;10095533;28;20041;-76
2023/08/05 04:06:39;;;;;;;4.63;2.90;;;17.50;99.90;;;;;;10095903;28;20576;-77
2023/08/05 04:11:32;;;;;;;4.13;2.72;;;17.50;99.90;;;;;;10102774;28;20048;-74
2023/08/05 04:16:23;;;;;;;4.07;2.53;;;17.40;99.90;;;;;;10110744;28;20032;-77
2023/08/05 04:21:14;;;;;;;3.28;2.55;;;17.60;99.90;;;;;;10102272;28;20041;-74
2023/08/05 04:26:05;;;;;;;4.28;2.85;;;17.50;99.90;;;;;;10107777;28;20033;-77
2023/08/05 04:30:57;;;;;;;6.50;3.33;;;17.40;99.90;;;;;;10102252;28;20507;-77
2023/08/05 04:35:49;;;;;;;4.22;2.85;;;17.30;99.90;;;;;;10102136;28;20072;-76
2023/08/05 04:40:39;;;;;;;4.60;2.72;;;17.30;99.90;;;;;;10102280;28;20028;-77
2023/08/05 04:45:30;;;;;;;6.10;3.30;;;17.20;99.90;;;;;;10102570;28;20041;-78
2023/08/05 04:50:21;;;;;;;6.53;3.72;;;17.20;99.90;;;;;;10102476;28;20028;-79
2023/08/05 04:55:12;;;;;;;5.38;2.97;;;17.20;99.90;;;;;;10102218;28;20036;-79
2023/08/05 05:00:03;;;;;;;4.07;2.60;;;17.30;99.90;;;;;;10105081;28;20040;-79
2023/08/05 05:04:54;;;;;;;5.15;3.08;;;17.40;99.90;;;;;;10100540;28;20118;-80
2023/08/05 05:09:44;;;;;;;5.22;3.53;;;17.50;99.90;;;;;;10099279;28;20021;-78
2023/08/05 05:14:41;;;;;;;3.95;2.88;;;17.40;99.90;;;;;;10101494;28;20509;-79
2023/08/05 05:19:32;;;;;;;5.22;3.00;;;17.20;99.90;;;;;;10108272;28;20087;-79
2023/08/05 05:24:23;;;;;;;4.97;3.15;;;17.10;99.90;;;;;;10100888;28;20049;-74
2023/08/05 05:29:13;;;;;;;3.35;2.38;;;17.30;99.90;;;;;;10104838;28;20029;-79
2023/08/05 05:34:04;;;;;;;6.60;3.22;;;17.40;99.90;;;;;;10100847;28;20036;-79
2023/08/05 05:38:54;;;;;;;5.20;3.15;;;17.40;99.90;;;;;;10099015;28;20024;-79
2023/08/05 05:43:45;;;;;;;4.63;2.90;;;17.40;99.90;;;;;;10100352;28;20048;-76
2023/08/05 05:48:35;;;;;;;5.93;3.08;;;17.50;99.90;;;;;;10099609;28;20526;-78
2023/08/05 05:53:26;;;;;;;4.57;3.13;;;17.50;99.90;;;;;;10106072;28;20159;-78
2023/08/05 05:58:17;;;;;;;4.65;2.53;;;17.40;99.90;;;;;;10099635;28;20491;-75
2023/08/05 06:03:07;;;;;;;4.03;2.30;;;17.50;99.90;;;;;;10099161;28;20518;-74
2023/08/05 06:07:58;;;;;;;3.83;2.53;;;17.70;99.90;;;;;;10099739;28;20025;-75
2023/08/05 06:12:49;;;;;;;4.05;2.67;;;17.70;99.90;;;;;;10099061;28;20021;-78
2023/08/05 06:17:40;;;;;;;4.30;2.95;;;17.80;99.90;;;;;;10106418;28;20082;-74
2023/08/05 06:22:30;;;;;;;3.67;2.50;;;17.80;99.90;;;;;;10098082;28;20091;-76
2023/08/05 06:27:21;;;;;;;5.03;2.38;;;17.70;99.90;;;;;;10102557;28;20025;-76
2023/08/05 06:32:12;;;;;;;4.13;2.35;;;17.70;99.90;;;;;;10097617;28;20113;-72
2023/08/05 06:37:03;;;;;;;3.97;2.45;;;17.70;99.90;;;;;;10096317;28;20033;-71
2023/08/05 06:41:53;;;;;;;2.70;2.05;;;17.80;99.90;;;;;;10097863;28;20616;-72
2023/08/05 06:46:44;;;;;;;2.92;2.13;;;17.80;99.90;;;;;;10096094;28;20031;-72
2023/08/05 06:51:35;;;;;;;4.32;2.80;;;17.90;99.90;;;;;;10097113;28;20033;-71
2023/08/05 06:56:25;;;;;;;4.55;2.70;;;17.90;99.90;;;;;;10097328;28;20040;-70
2023/08/05 07:01:16;;;;;;;3.50;2.25;;;18.00;99.90;;;;;;10097112;28;20418;-69
2023/08/05 07:06:06;;;;;;;4.90;2.50;;;18.00;99.90;;;;;;10097013;28;20044;-71
2023/08/05 07:10:58;;;;;;;3.75;2.38;;;18.20;99.90;;;;;;10096068;28;20025;-70
2023/08/05 07:15:49;;;;;;;3.55;2.35;;;18.10;99.90;;;;;;10100739;28;20029;-72
2023/08/05 07:20:40;;;;;;;6.90;2.88;;;18.20;99.90;;;;;;10099110;28;20064;-71
2023/08/05 07:25:31;;;;;;;4.22;2.17;;;18.40;99.90;;;;;;10098286;28;20215;-70
2023/08/05 07:30:21;;;;;;;4.93;2.40;;;18.40;99.90;;;;;;10098166;28;20156;-71
2023/08/05 07:35:14;;;;;;;4.32;2.45;;;18.50;99.90;;;;;;10092007;28;20024;-71
2023/08/05 07:40:12;;;;;;;3.58;2.65;;;18.50;99.90;;;;;;10093968;28;20071;-71
2023/08/05 07:45:07;;;;;;;3.30;2.53;;;18.50;99.90;;;;;;10100869;28;20036;-71
2023/08/05 07:49:58;;;;;;;4.82;3.00;;;18.40;99.90;;;;;;10103277;28;20075;-71
2023/08/05 07:54:49;;;;;;;6.47;2.95;;;18.40;99.90;;;;;;10104038;28;20033;-71
2023/08/05 07:59:39;;;;;;;4.72;3.20;;;18.40;99.90;;;;;;10102957;28;20564;-72
2023/08/05 08:04:32;;;;;;;4.35;2.80;;;18.40;99.90;;;;;;10108570;28;20032;-71
2023/08/05 08:09:23;;;;;;;4.35;2.53;;;18.40;99.90;;;;;;10102783;28;20060;-72
2023/08/05 08:14:14;;;;;;;4.60;2.47;;;18.40;99.90;;;;;;10103120;28;20025;-72
2023/08/05 08:19:05;;;;;;;3.67;2.15;;;18.40;99.90;;;;;;10110808;28;20025;-72
2023/08/05 08:23:56;;;;;;;5.30;2.97;;;18.50;99.90;;;;;;10102571;28;20048;-72
2023/08/05 08:28:46;;;;;;;4.18;2.60;;;18.50;99.90;;;;;;10104028;28;20059;-72
2023/08/05 08:33:37;;;;;;;5.40;3.13;;;18.70;99.90;;;;;;10102765;28;20043;-70
2023/08/05 08:38:28;;;;;;;4.45;2.80;;;18.70;99.90;;;;;;10102688;28;20112;-71
2023/08/05 08:43:22;;;;;;;4.05;2.80;;;18.80;99.90;;;;;;10101786;28;20036;-74
2023/08/05 08:48:14;;;;;;;4.97;2.70;;;18.80;99.90;;;;;;10100963;28;20079;-71
2023/08/05 08:53:07;;;;;;;2.80;2.55;;;18.90;99.90;;;;;;10100913;28;20025;-72
2023/08/05 08:57:58;;;;;;;4.13;2.72;;;19.00;99.90;;;;;;10100370;28;20208;-71
2023/08/05 09:02:49;;;;;;;3.00;2.33;;;19.00;99.90;;;;;;10100351;28;20566;-75
2023/08/05 09:07:40;;;;;;;2.33;1.88;;;19.00;99.90;;;;;;10100619;28;20028;-72
2023/08/05 09:12:31;;;;;;;3.53;2.25;;;19.10;99.90;;;;;;10099838;28;20032;-72
2023/08/05 09:17:22;;;;;;;3.20;2.67;;;19.00;99.90;;;;;;10103434;28;20029;-76
2023/08/05 09:22:12;;;;;;;4.18;2.45;;;19.00;99.90;;;;;;10100151;28;20049;-73
2023/08/05 09:27:04;;;;;;;6.35;2.63;;;19.00;99.90;;;;;;10102035;28;20099;-74
2023/08/05 09:31:58;;;;;;;2.45;2.22;;;19.00;99.90;;;;;;10098455;28;20036;-71
2023/08/05 09:36:49;;;;;;;3.65;2.28;;;19.10;99.90;;;;;;10099894;28;20546;-71
2023/08/05 09:41:49;;;;;;;5.72;2.55;;;19.20;99.90;;;;;;10100041;28;20049;-72
2023/08/05 09:46:41;;;;;;;4.50;2.35;;;19.30;99.90;;;;;;10097979;28;20491;-73
2023/08/05 09:51:32;;;;;;;4.20;2.20;;;19.30;99.90;;;;;;10098858;28;20090;-73
2023/08/05 09:56:23;;;;;;;4.28;2.50;;;19.50;99.90;;;;;;10098407;28;20045;-72
2023/08/05 10:01:14;;;;;;;3.38;2.20;;;19.50;99.90;;;;;;10098550;28;20029;-73
2023/08/05 10:06:08;;;;;;;6.60;2.78;;;19.50;99.90;;;;;;10097657;28;20590;-74
2023/08/05 10:11:00;;;;;;;3.20;2.30;;;19.60;99.90;;;;;;10098862;28;20091;-72
2023/08/05 10:15:53;;;;;;;3.47;2.20;;;19.60;99.90;;;;;;10102184;28;20036;-72
2023/08/05 10:20:50;;;;;;;4.15;1.98;;;19.70;99.90;;;;;;10089858;28;20115;-71
2023/08/05 10:25:46;;;;;;;4.00;2.20;;;19.70;99.90;;;;;;10101120;28;20040;-71
2023/08/05 10:30:44;;;;;;;3.22;2.22;;;19.80;99.90;;;;;;10096141;28;20194;-73
2023/08/05 10:35:40;;;;;;;4.40;2.25;;;20.00;99.90;;;;;;10098747;28;20063;-72
2023/08/05 10:40:38;;;;;;;2.40;1.75;;;20.10;99.90;;;;;;10095867;28;20028;-72
2023/08/05 10:45:29;;;;;;;4.05;1.88;;;20.00;99.90;;;;;;10085907;28;20096;-74
2023/08/05 10:50:19;;;;;;;2.72;1.95;;;20.00;99.90;;;;;;10097053;28;20104;-72
2023/08/05 10:55:12;;;;;;;3.42;2.10;;;20.20;99.90;;;;;;10097086;28;20078;-71
2023/08/05 11:00:05;;;;;;;2.30;1.92;;;20.20;99.90;;;;;;10096418;28;20406;-73
2023/08/05 11:05:08;;;;;;;2.17;1.70;;;20.40;99.90;;;;;;10102867;28;20066;-73
2023/08/05 11:09:59;;;;;;;3.97;1.83;;;20.60;99.90;;;;;;10097553;28;20053;-74
2023/08/05 11:14:50;;;;;;;2.50;1.63;;;20.60;99.90;;;;;;10096399;28;20024;-72
2023/08/05 11:19:54;;;;;;;2.55;1.92;;;20.70;99.90;;;;;;10101977;28;20107;-74
2023/08/05 11:24:44;;;;;;;2.13;1.67;;;20.80;99.90;;;;;;10087162;28;20124;-74
2023/08/05 11:29:38;;;;;;;1.77;1.45;;;20.90;99.90;;;;;;10098542;28;20128;-72
2023/08/05 11:34:29;;;;;;;2.50;1.80;;;20.90;99.90;;;;;;10095190;28;20025;-75
2023/08/05 11:39:26;;;;;;;2.72;1.90;;;21.00;99.90;;;;;;10096498;28;20111;-75
2023/08/05 11:44:17;;;;;;;3.08;1.50;;;21.20;99.90;;;;;;10103365;28;20040;-75
2023/08/05 11:49:13;;;;;;;2.90;1.65;;;21.10;99.90;;;;;;10105994;28;20029;-73
2023/08/05 11:54:04;;;;;;;3.13;1.63;;;21.20;99.90;;;;;;10096388;28;20028;-74
2023/08/05 11:58:54;;;;;;;3.20;1.90;;;21.20;99.90;;;;;;10096791;28;20041;-72
2023/08/05 12:03:45;;;;;;;2.42;1.88;;;21.00;99.90;;;;;;10097062;28;20055;-72
2023/08/05 12:08:38;;;;;;;2.88;1.80;;;21.00;99.90;;;;;;10095897;28;20021;-72
2023/08/05 12:13:33;;;;;;;2.58;1.75;;;20.90;99.90;;;;;;10095343;28;20044;-73
2023/08/05 12:18:23;;;;;;;2.75;1.50;;;20.90;99.90;;;;;;10103431;28;20040;-73
2023/08/05 12:23:14;;;;;;;4.13;2.10;;;20.90;99.90;;;;;;10092656;28;20060;-72
2023/08/05 12:28:05;;;;;;;6.05;2.88;;;20.50;99.90;;;;;;10100544;28;20059;-82
2023/08/05 12:32:57;;;;;;;4.18;2.80;;;20.30;99.90;;;;;;10109910;28;20029;-84
2023/08/05 12:37:47;;;;;;;3.05;2.38;;;20.10;99.90;;;;;;10110346;28;20060;-79
2023/08/05 12:42:39;;;;;;;3.67;2.67;;;20.10;99.90;;;;;;10115235;28;20085;-81
2023/08/05 12:47:30;;;;;;;3.33;2.00;;;20.10;99.90;;;;;;10113918;28;20506;-86
2023/08/05 12:52:21;;;;;;;2.95;2.35;;;20.10;99.90;;;;;;10105355;28;20438;-83
2023/08/05 12:57:11;;;;;;;11.43;5.85;;;20.10;99.90;;;;;;10103296;28;20025;-74
2023/08/05 13:02:02;;;;;;;4.63;2.70;;;19.90;99.90;;;;;;10102517;28;20063;-75
2023/08/05 13:06:53;;;;;;;8.98;5.45;;;19.80;99.90;;;;;;10102519;28;20063;-71
2023/08/05 13:11:45;;;;;;;5.47;3.10;;;19.80;99.90;;;;;;10112156;28;20025;-74
2023/08/05 13:16:36;;;;;;;2.97;2.38;;;19.90;99.90;;;;;;10098220;28;20025;-73
2023/08/05 13:21:26;;;;;;;5.85;2.15;;;20.00;99.90;;;;;;10101491;28;20495;-74
2023/08/05 13:26:17;;;;;;;4.55;1.77;;;20.00;99.90;;;;;;10100442;28;20056;-73
2023/08/05 13:31:07;;;;;;;2.05;1.67;;;20.00;99.90;;;;;;10107599;28;20539;-72
2023/08/05 13:35:58;;;;;;;1.85;1.60;;;20.10;99.90;;;;;;10092211;28;20047;-74
2023/08/05 13:40:52;;;;;;;2.95;2.20;;;20.40;99.90;;;;;;10096685;28;20025;-74
2023/08/05 13:45:56;;;;;;;4.85;2.13;;;20.70;99.90;;;;;;10094343;28;20040;-74
2023/08/05 13:50:46;;;;;;;4.57;2.00;;;21.20;99.90;;;;;;10096445;28;20021;-74
2023/08/05 13:55:37;;;;;;;3.95;2.10;;;21.60;99.90;;;;;;10097015;28;20523;-74
2023/08/05 14:00:28;;;;;;;2.95;2.05;;;21.90;99.90;;;;;;10096056;28;20373;-75
2023/08/05 14:05:19;;;;;;;2.25;1.70;;;22.20;99.90;;;;;;10095703;28;20041;-74
2023/08/05 14:10:10;;;;;;;3.05;2.20;;;22.10;99.90;;;;;;10093967;28;20065;-74
2023/08/05 14:15:01;;;;;;;2.92;2.60;;;22.30;99.90;;;;;;10095946;28;20044;-74
2023/08/05 14:19:52;;;;;;;3.95;2.03;;;22.70;99.90;;;;;;10099712;28;20021;-74
2023/08/05 14:24:42;;;;;;;3.45;1.77;;;23.00;99.90;;;;;;10097902;28;20049;-75
2023/08/05 14:29:35;;;;;;;3.63;2.08;;;23.20;99.90;;;;;;10098144;28;20090;-75
2023/08/05 14:34:26;;;;;;;7.93;2.78;;;23.20;99.90;;;;;;10098475;28;20436;-74
2023/08/05 14:39:17;;;;;;;3.25;2.13;;;22.80;99.90;;;;;;10101134;28;20029;-74
2023/08/05 14:44:08;;;;;;;3.70;2.28;;;22.60;99.90;;;;;;10097677;28;20048;-74
2023/08/05 14:48:58;;;;;;;2.88;2.05;;;22.50;99.90;;;;;;10097332;28;20021;-73
2023/08/05 14:53:49;;;;;;;4.22;2.03;;;23.00;99.90;;;;;;10097022;28;20446;-73
2023/08/05 14:58:39;;;;;;;3.13;1.50;;;23.60;99.90;;;;;;10097066;28;20115;-73
2023/08/05 15:03:30;;;;;;;2.92;1.75;;;24.00;99.90;;;;;;10096567;28;20040;-73
2023/08/05 15:08:21;;;;;;;2.42;1.70;;;24.30;99.90;;;;;;10096191;28;20044;-74
2023/08/05 15:13:11;;;;;;;2.30;1.27;;;24.10;99.90;;;;;;10097353;28;20057;-74
2023/08/05 15:18:05;;;;;;;4.03;1.65;;;23.70;99.90;;;;;;10099521;28;20037;-74
2023/08/05 15:22:56;;;;;;;1.92;1.45;;;23.40;99.90;;;;;;10096255;28;20057;-74
2023/08/05 15:27:46;;;;;;;1.80;1.15;;;23.20;99.90;;;;;;10101035;28;20475;-73
2023/08/05 15:32:37;;;;;;;2.30;1.38;;;23.20;99.90;;;;;;10104805;28;20043;-74
2023/08/05 15:37:28;;;;;;;2.22;1.33;;;23.10;99.90;;;;;;10103231;28;20033;-74
2023/08/05 15:42:19;;;;;;;2.08;1.88;;;23.10;99.90;;;;;;10103368;28;20040;-73
2023/08/05 15:47:09;;;;;;;2.00;1.30;;;23.10;99.90;;;;;;10101403;28;20029;-73
2023/08/05 15:52:00;;;;;;;2.20;1.50;;;23.10;99.90;;;;;;10098000;28;20037;-74
2023/08/05 15:56:51;;;;;;;2.40;1.35;;;23.10;99.90;;;;;;10096856;28;20033;-74
2023/08/05 16:01:42;;;;;;;2.40;1.05;;;23.10;99.90;;;;;;10096542;28;20048;-71
2023/08/05 16:06:32;;;;;;;2.42;1.50;;;23.10;99.90;;;;;;10101143;28;20031;-72
2023/08/05 16:11:23;;;;;;;1.75;1.30;;;22.90;99.90;;;;;;10103517;28;20422;-74
2023/08/05 16:16:15;;;;;;;2.50;1.40;;;22.90;99.90;;;;;;10103642;28;20013;-75
2023/08/05 16:21:20;;;;;;;1.58;1.45;;;23.00;99.90;;;;;;10104288;28;20053;-74
2023/08/05 16:26:12;;;;;;;3.58;1.63;;;23.10;99.90;;;;;;10102342;28;20525;-73
2023/08/05 16:31:04;;;;;;;2.50;1.58;;;23.00;99.90;;;;;;10102471;28;20502;-74
2023/08/05 16:35:55;;;;;;;2.38;1.58;;;23.10;99.90;;;;;;10102064;28;20051;-73
2023/08/05 16:40:45;;;;;;;2.30;1.95;;;23.10;99.90;;;;;;10101968;28;20021;-74
2023/08/05 16:45:36;;;;;;;2.65;1.65;;;23.20;99.90;;;;;;10100458;28;20043;-74
2023/08/05 16:50:27;;;;;;;2.97;1.40;;;23.20;99.90;;;;;;10100897;28;20104;-74
2023/08/05 16:55:17;;;;;;;3.22;1.58;;;23.20;99.90;;;;;;10101632;28;20033;-74
2023/08/05 17:00:08;;;;;;;2.22;1.58;;;23.20;99.90;;;;;;10099481;28;20033;-73
2023/08/05 17:04:59;;;;;;;2.38;1.50;;;23.20;99.90;;;;;;10100802;28;20403;-74
2023/08/05 17:09:50;;;;;;;2.13;1.80;;;23.20;99.90;;;;;;10098748;28;20068;-73
2023/08/05 17:14:40;;;;;;;2.65;1.42;;;23.20;99.90;;;;;;10100956;28;20049;-73
2023/08/05 17:19:31;;;;;;;2.15;1.58;;;23.20;99.90;;;;;;10100554;28;20109;-73
2023/08/05 17:24:21;;;;;;;2.90;1.80;;;23.20;99.90;;;;;;10099703;28;20084;-74
2023/08/05 17:29:13;;;;;;;10.68;3.13;;;23.20;99.90;;;;;;10098778;28;20323;-73
2023/08/05 17:34:04;;;;;;;5.85;1.70;;;23.10;99.90;;;;;;10106652;28;20103;-73
2023/08/05 17:38:55;;;;;;;1.83;1.50;;;23.20;99.90;;;;;;10100427;28;20025;-73
2023/08/05 17:43:45;;;;;;;2.75;1.55;;;23.10;99.90;;;;;;10098298;28;20413;-72
2023/08/05 17:48:36;;;;;;;3.42;1.70;;;23.10;99.90;;;;;;10097898;28;20414;-74
2023/08/05 17:53:27;;;;;;;2.20;1.48;;;23.00;99.90;;;;;;10100427;28;20110;-73
2023/08/05 17:58:17;;;;;;;2.40;2.17;;;23.00;99.90;;;;;;10097464;28;20530;-73
2023/08/05 18:03:08;;;;;;;2.85;1.20;;;23.00;99.90;;;;;;10098806;28;20553;-73
2023/08/05 18:07:58;;;;;;;2.90;2.70;;;22.90;99.90;;;;;;10104149;28;20074;-72
2023/08/05 18:12:49;;;;;;;3.33;2.15;;;22.90;99.90;;;;;;10099067;28;20036;-74
2023/08/05 18:17:40;;;;;;;2.17;1.50;;;22.70;99.90;;;;;;10102146;28;20128;-74
2023/08/05 18:22:30;;;;;;;2.38;1.50;;;22.50;99.90;;;;;;10101490;28;20045;-74
2023/08/05 18:27:21;;;;;;;2.35;1.52;;;22.30;99.90;;;;;;10103329;28;20077;-74
2023/08/05 18:32:12;;;;;;;1.63;1.20;;;22.10;99.90;;;;;;10101802;28;20024;-74
2023/08/05 18:37:03;;;;;;;2.38;1.20;;;21.70;99.90;;;;;;10099346;28;20025;-74
2023/08/05 18:41:53;;;;;;;1.90;1.13;;;21.30;99.90;;;;;;10099037;28;20112;-74
2023/08/05 18:46:44;;;;;;;2.85;1.27;;;21.30;99.90;;;;;;10097910;28;20039;-74
2023/08/05 18:51:35;;;;;;;1.83;1.35;;;21.20;99.90;;;;;;10097372;28;20041;-72
2023/08/05 18:56:25;;;;;;;2.17;1.75;;;21.20;99.90;;;;;;10096545;28;20116;-73
2023/08/05 19:01:16;;;;;;;2.05;1.40;;;21.30;99.90;;;;;;10096809;28;20075;-73
2023/08/05 19:06:07;;;;;;;3.20;1.55;;;21.40;99.90;;;;;;10105070;28;20447;-73
2023/08/05 19:10:57;;;;;;;2.83;1.58;;;21.30;99.90;;;;;;10096406;28;20062;-73
2023/08/05 19:15:59;;;;;;;5.22;1.80;;;21.30;99.90;;;;;;10099951;28;20106;-73
2023/08/05 19:20:49;;;;;;;2.20;1.50;;;21.40;99.90;;;;;;10097321;28;20049;-73
2023/08/05 19:25:40;;;;;;;2.28;1.50;;;21.40;99.90;;;;;;10095673;28;20410;-74
2023/08/05 19:30:35;;;;;;;2.20;1.48;;;21.30;99.90;;;;;;10089106;28;20040;-73
2023/08/05 19:35:29;;;;;;;3.17;1.52;;;21.20;99.90;;;;;;10094341;28;20033;-73
2023/08/05 19:40:20;;;;;;;2.20;1.52;;;21.30;99.90;;;;;;10096920;28;20044;-74
2023/08/05 19:45:11;;;;;;;2.42;1.60;;;21.40;99.90;;;;;;10094848;28;20135;-73
2023/08/05 19:50:01;;;;;;;2.28;1.75;;;21.20;99.90;;;;;;10101838;28;20290;-73
2023/08/05 19:54:52;;;;;;;2.00;1.73;;;21.30;99.90;;;;;;10103686;28;20036;-73
2023/08/05 19:59:43;;;;;;;3.25;1.52;;;21.40;99.90;;;;;;10103057;28;20021;-73
2023/08/05 20:04:34;;;;;;;3.75;2.20;;;21.40;99.90;;;;;;10108355;28;20498;-73
2023/08/05 20:09:25;;;;;;;4.07;2.42;;;21.20;99.90;;;;;;10100406;28;20067;-73
2023/08/05 20:14:15;;;;;;;3.67;2.17;;;21.10;99.90;;;;;;10102726;28;20396;-72
2023/08/05 20:19:06;;;;;;;2.78;2.03;;;20.90;99.90;;;;;;10111278;28;20429;-72
2023/08/05 20:23:58;;;;;;;3.70;2.25;;;20.90;99.90;;;;;;10102554;28;20045;-72
2023/08/05 20:28:49;;;;;;;2.55;1.80;;;20.90;99.90;;;;;;10104368;28;20479;-72
2023/08/05 20:33:40;;;;;;;2.63;2.05;;;21.00;99.90;;;;;;10103388;28;20021;-73
2023/08/05 20:38:31;;;;;;;2.70;2.00;;;21.00;99.90;;;;;;10101985;28;20029;-73
2023/08/05 20:43:21;;;;;;;3.65;2.30;;;21.10;99.90;;;;;;10102323;28;20029;-72
2023/08/05 20:48:12;;;;;;;3.65;2.42;;;21.10;99.90;;;;;;10101971;28;20104;-73
2023/08/05 20:53:03;;;;;;;2.25;1.60;;;21.10;99.90;;;;;;10101011;28;20434;-73
2023/08/05 20:57:53;;;;;;;4.22;1.65;;;21.20;99.90;;;;;;10102719;28;20033;-73
2023/08/05 21:02:44;;;;;;;2.80;1.60;;;21.30;99.90;;;;;;10102124;28;20469;-74
2023/08/05 21:07:35;;;;;;;1.58;1.23;;;21.30;99.90;;;;;;10100508;28;20033;-73
2023/08/05 21:12:26;;;;;;;3.20;1.77;;;21.30;99.90;;;;;;10103227;28;20040;-73
2023/08/05 21:17:16;;;;;;;2.35;1.40;;;21.30;99.90;;;;;;10113930;28;20188;-73
2023/08/05 21:22:07;;;;;;;2.35;1.40;;;21.20;99.90;;;;;;10102363;28;20044;-73
2023/08/05 21:26:58;;;;;;;3.85;1.75;;;21.30;99.90;;;;;;10100815;28;20021;-73
2023/08/05 21:31:48;;;;;;;2.28;1.50;;;21.30;99.90;;;;;;10100329;28;20479;-72
2023/08/05 21:36:39;;;;;;;2.22;1.70;;;21.30;99.90;;;;;;10101780;28;20112;-73
2023/08/05 21:41:29;;;;;;;2.60;1.48;;;21.30;99.90;;;;;;10100783;28;20025;-74
2023/08/05 21:46:20;;;;;;;1.67;1.20;;;21.30;99.90;;;;;;10098019;28;20445;-74
2023/08/05 21:51:11;;;;;;;2.25;1.50;;;21.30;99.90;;;;;;10098386;28;20029;-74
2023/08/05 21:56:03;;;;;;;1.77;1.27;;;21.20;99.90;;;;;;10108335;28;20031;-74
2023/08/05 22:00:54;;;;;;;2.30;1.10;;;21.10;99.90;;;;;;10099231;28;20395;-74
2023/08/05 22:05:45;;;;;;;1.58;1.08;;;21.00;99.90;;;;;;10097774;28;20055;-75
2023/08/05 22:10:38;;;;;;;2.13;0.93;;;20.90;99.90;;;;;;10098430;28;20036;-76
2023/08/05 22:15:28;;;;;;;2.35;1.23;;;20.80;99.90;;;;;;10098293;28;20029;-75
2023/08/05 22:20:19;;;;;;;2.42;1.25;;;20.90;99.90;;;;;;10104853;28;20049;-73
2023/08/05 22:25:10;;;;;;;1.98;1.25;;;21.00;99.90;;;;;;10098375;28;20033;-74
2023/08/05 22:30:00;;;;;;;3.00;0.93;;;20.80;99.90;;;;;;10097805;28;20087;-74
2023/08/05 22:34:53;;;;;;;2.08;1.08;;;20.70;99.90;;;;;;10098209;28;20094;-74
2023/08/05 22:39:43;;;;;;;1.35;1.15;;;20.90;99.90;;;;;;10097195;28;20029;-74
2023/08/05 22:44:34;;;;;;;1.98;1.05;;;20.80;99.90;;;;;;10098278;28;20049;-74
2023/08/05 22:49:25;;;;;;;1.83;1.30;;;20.80;99.90;;;;;;10099937;28;20033;-75
2023/08/05 22:54:15;;;;;;;1.65;1.08;;;20.70;99.90;;;;;;10099536;28;20036;-74
2023/08/05 22:59:06;;;;;;;2.20;0.95;;;20.70;99.90;;;;;;10107723;28;20483;-74
2023/08/05 23:03:57;;;;;;;1.50;1.08;;;20.60;99.90;;;;;;10096870;28;20025;-74
2023/08/05 23:08:48;;;;;;;2.97;1.50;;;20.50;99.90;;;;;;10111628;28;20259;-73
2023/08/05 23:13:39;;;;;;;1.60;1.05;;;20.50;99.90;;;;;;10108224;22;20546;-76
2023/08/05 23:18:30;;;;;;;1.98;1.20;;;20.50;99.90;;;;;;10078177;28;20039;-75
2023/08/05 23:23:21;;;;;;;1.88;1.15;;;20.40;99.90;;;;;;10096663;28;20052;-76
2023/08/05 23:28:12;;;;;;;2.63;1.08;;;20.50;99.90;;;;;;10078853;28;20048;-76
2023/08/05 23:33:03;;;;;;;1.60;0.90;;;20.50;99.90;;;;;;10096498;28;20075;-77
2023/08/05 23:37:54;;;;;;;1.73;0.90;;;20.40;99.90;;;;;;10096297;28;20439;-75
2023/08/05 23:42:45;;;;;;;2.20;1.00;;;20.40;99.90;;;;;;10096719;28;20556;-76
2023/08/05 23:47:35;;;;;;;1.90;1.20;;;20.40;99.90;;;;;;10096177;28;20394;-75
2023/08/05 23:52:26;;;;;;;2.47;1.00;;;20.30;99.90;;;;;;10084086;28;20053;-77
2023/08/05 23:57:16;;;;;;;2.15;1.20;;;20.40;99.90;;;;;;10078962;28;20268;-76
